createdAt,value
2023-05-21T00:00:33.646Z,581.00
2023-05-21T00:01:33.623Z,580.00
2023-05-21T00:02:33.704Z,579.00
2023-05-21T00:03:33.718Z,580.00
2023-05-21T00:04:33.683Z,581.00
2023-05-21T00:05:33.810Z,581.00
2023-05-21T00:06:33.813Z,580.00
2023-05-21T00:07:33.744Z,582.00
2023-05-21T00:08:33.735Z,582.00
2023-05-21T00:09:33.783Z,582.00
2023-05-21T00:10:33.799Z,579.00
2023-05-21T00:11:33.802Z,579.00
2023-05-21T00:12:33.829Z,581.00
2023-05-21T00:13:33.848Z,578.00
2023-05-21T00:14:33.877Z,580.00
2023-05-21T00:15:34.022Z,578.00
2023-05-21T00:16:33.977Z,576.00
2023-05-21T00:17:34.007Z,578.00
2023-05-21T00:18:33.945Z,578.00
2023-05-21T00:19:34.005Z,579.00
2023-05-21T00:20:33.967Z,578.00
2023-05-21T00:21:33.983Z,577.00
2023-05-21T00:22:34.010Z,578.00
2023-05-21T00:23:34.035Z,579.00
2023-05-21T00:24:34.008Z,581.00
2023-05-21T00:25:34.380Z,585.00
2023-05-21T00:26:34.085Z,584.00
2023-05-21T00:27:34.113Z,584.00
2023-05-21T00:28:34.136Z,584.00
2023-05-21T00:29:34.140Z,586.00
2023-05-21T00:30:34.153Z,587.00
2023-05-21T00:31:34.226Z,586.00
2023-05-21T00:32:34.289Z,586.00
2023-05-21T00:33:34.230Z,585.00
2023-05-21T00:34:34.242Z,586.00
2023-05-21T00:35:34.406Z,587.00
2023-05-21T00:36:34.260Z,585.00
2023-05-21T00:37:34.284Z,587.00
2023-05-21T00:38:34.296Z,586.00
2023-05-21T00:39:34.321Z,586.00
2023-05-21T00:40:34.369Z,588.00
2023-05-21T00:41:34.365Z,589.00
2023-05-21T00:42:34.381Z,588.00
2023-05-21T00:43:34.428Z,589.00
2023-05-21T00:44:34.564Z,588.00
2023-05-21T00:45:34.769Z,586.00
2023-05-21T00:46:34.502Z,588.00
2023-05-21T00:47:34.561Z,586.00
2023-05-21T00:48:34.523Z,581.00
2023-05-21T00:49:34.514Z,583.00
2023-05-21T00:50:34.576Z,581.00
2023-05-21T00:51:34.586Z,579.00
2023-05-21T00:52:34.605Z,579.00
2023-05-21T00:53:34.634Z,580.00
2023-05-21T00:54:34.658Z,580.00
2023-05-21T00:55:34.939Z,582.00
2023-05-21T00:56:34.692Z,583.00
2023-05-21T00:57:34.727Z,583.00
2023-05-21T00:58:34.733Z,583.00
2023-05-21T00:59:34.747Z,583.00
2023-05-21T01:00:34.772Z,582.00
2023-05-21T01:01:34.841Z,579.00
2023-05-21T01:02:34.908Z,579.00
2023-05-21T01:03:34.889Z,579.00
2023-05-21T01:04:34.887Z,581.00
2023-05-21T01:05:35.164Z,579.00
2023-05-21T01:06:34.969Z,577.00
2023-05-21T01:07:34.945Z,580.00
2023-05-21T01:08:34.978Z,582.00
2023-05-21T01:09:34.970Z,579.00
2023-05-21T01:10:34.982Z,576.00
2023-05-21T01:11:35.028Z,576.00
2023-05-21T01:12:35.053Z,575.00
2023-05-21T01:13:35.101Z,574.00
2023-05-21T01:14:35.095Z,574.00
2023-05-21T01:15:35.229Z,575.00
2023-05-21T01:16:35.159Z,577.00
2023-05-21T01:17:35.208Z,577.00
2023-05-21T01:18:35.185Z,579.00
2023-05-21T01:19:35.209Z,576.00
2023-05-21T01:20:35.217Z,575.00
2023-05-21T01:21:35.244Z,575.00
2023-05-21T01:22:35.255Z,578.00
2023-05-21T01:23:35.300Z,580.00
2023-05-21T01:24:35.332Z,579.00
2023-05-21T01:25:35.484Z,579.00
2023-05-21T01:26:35.355Z,580.00
2023-05-21T01:27:35.386Z,578.00
2023-05-21T01:28:35.411Z,575.00
2023-05-21T01:29:35.413Z,577.00
2023-05-21T01:30:35.465Z,580.00
2023-05-21T01:31:35.503Z,580.00
2023-05-21T01:32:35.594Z,579.00
2023-05-21T01:33:35.626Z,580.00
2023-05-21T01:34:35.587Z,583.00
2023-05-21T01:35:35.892Z,582.00
2023-05-21T01:36:35.621Z,581.00
2023-05-21T01:37:36.671Z,579.00
2023-05-21T01:38:35.661Z,578.00
2023-05-21T01:39:35.688Z,576.00
2023-05-21T01:40:35.712Z,573.00
2023-05-21T01:41:35.743Z,573.00
2023-05-21T01:42:35.750Z,575.00
2023-05-21T01:43:35.756Z,576.00
2023-05-21T01:44:35.778Z,576.00
2023-05-21T01:45:36.137Z,579.00
2023-05-21T01:46:35.924Z,578.00
2023-05-21T01:47:35.911Z,578.00
2023-05-21T01:48:35.914Z,580.00
2023-05-21T01:49:35.934Z,577.00
2023-05-21T01:50:35.953Z,577.00
2023-05-21T01:51:35.976Z,577.00
2023-05-21T01:52:36.003Z,578.00
2023-05-21T01:53:36.045Z,579.00
2023-05-21T01:54:36.070Z,580.00
2023-05-21T01:55:36.445Z,577.00
2023-05-21T01:56:36.105Z,576.00
2023-05-21T01:57:36.116Z,578.00
2023-05-21T01:58:36.187Z,578.00
2023-05-21T01:59:36.208Z,575.00
2023-05-21T02:00:36.190Z,579.00
2023-05-21T02:01:36.274Z,579.00
2023-05-21T02:02:36.322Z,579.00
2023-05-21T02:03:36.393Z,582.00
2023-05-21T02:04:36.321Z,583.00
2023-05-21T02:05:36.558Z,584.00
2023-05-21T02:06:36.353Z,585.00
2023-05-21T02:07:36.406Z,583.00
2023-05-21T02:08:36.434Z,583.00
2023-05-21T02:09:36.432Z,584.00
2023-05-21T02:10:36.488Z,583.00
2023-05-21T02:11:36.473Z,586.00
2023-05-21T02:12:36.528Z,586.00
2023-05-21T02:13:36.551Z,587.00
2023-05-21T02:14:36.545Z,588.00
2023-05-21T02:15:36.810Z,587.00
2023-05-21T02:16:36.672Z,585.00
2023-05-21T02:17:36.739Z,585.00
2023-05-21T02:18:36.674Z,583.00
2023-05-21T02:19:36.729Z,585.00
2023-05-21T02:20:36.707Z,584.00
2023-05-21T02:21:36.739Z,585.00
2023-05-21T02:22:36.779Z,586.00
2023-05-21T02:23:36.787Z,587.00
2023-05-21T02:24:36.826Z,584.00
2023-05-21T02:25:37.225Z,580.00
2023-05-21T02:26:36.884Z,581.00
2023-05-21T02:27:36.899Z,580.00
2023-05-21T02:28:36.919Z,581.00
2023-05-21T02:29:36.951Z,580.00
2023-05-21T02:30:36.971Z,581.00
2023-05-21T02:31:36.964Z,581.00
2023-05-21T02:32:37.014Z,582.00
2023-05-21T02:33:37.062Z,583.00
2023-05-21T02:34:37.013Z,582.00
2023-05-21T02:35:37.435Z,583.00
2023-05-21T02:36:37.089Z,586.00
2023-05-21T02:37:37.110Z,586.00
2023-05-21T02:38:37.131Z,584.00
2023-05-21T02:39:37.166Z,585.00
2023-05-21T02:40:37.173Z,585.00
2023-05-21T02:41:37.201Z,583.00
2023-05-21T02:42:37.270Z,584.00
2023-05-21T02:43:37.336Z,586.00
2023-05-21T02:44:37.322Z,588.00
2023-05-21T02:45:37.532Z,589.00
2023-05-21T02:46:37.340Z,588.00
2023-05-21T02:47:37.405Z,588.00
2023-05-21T02:48:37.389Z,588.00
2023-05-21T02:49:37.437Z,589.00
2023-05-21T02:50:37.469Z,588.00
2023-05-21T02:51:37.514Z,588.00
2023-05-21T02:52:37.516Z,588.00
2023-05-21T02:53:37.533Z,588.00
2023-05-21T02:54:37.559Z,586.00
2023-05-21T02:55:37.886Z,585.00
2023-05-21T02:56:37.646Z,584.00
2023-05-21T02:57:37.674Z,582.00
2023-05-21T02:58:37.701Z,583.00
2023-05-21T02:59:37.735Z,581.00
2023-05-21T03:00:37.749Z,584.00
2023-05-21T03:01:37.803Z,585.00
2023-05-21T03:02:37.917Z,583.00
2023-05-21T03:03:37.879Z,582.00
2023-05-21T03:04:37.829Z,581.00
2023-05-21T03:05:38.109Z,580.00
2023-05-21T03:06:37.925Z,580.00
2023-05-21T03:07:37.959Z,579.00
2023-05-21T03:08:37.953Z,579.00
2023-05-21T03:09:37.966Z,577.00
2023-05-21T03:10:38.025Z,578.00
2023-05-21T03:11:38.030Z,579.00
2023-05-21T03:12:38.076Z,581.00
2023-05-21T03:13:38.117Z,580.00
2023-05-21T03:14:38.112Z,578.00
2023-05-21T03:15:38.228Z,579.00
2023-05-21T03:16:38.208Z,580.00
2023-05-21T03:17:38.288Z,581.00
2023-05-21T03:18:38.204Z,582.00
2023-05-21T03:19:38.226Z,583.00
2023-05-21T03:20:38.287Z,583.00
2023-05-21T03:21:38.282Z,582.00
2023-05-21T03:22:38.318Z,581.00
2023-05-21T03:23:38.339Z,585.00
2023-05-21T03:24:38.368Z,585.00
2023-05-21T03:25:38.418Z,584.00
2023-05-21T03:26:38.447Z,583.00
2023-05-21T03:27:38.442Z,583.00
2023-05-21T03:28:38.499Z,584.00
2023-05-21T03:29:38.492Z,580.00
2023-05-21T03:30:38.568Z,579.00
2023-05-21T03:31:38.734Z,579.00
2023-05-21T03:32:38.633Z,576.00
2023-05-21T03:33:38.687Z,574.00
2023-05-21T03:34:38.704Z,573.00
2023-05-21T03:35:38.793Z,573.00
2023-05-21T03:36:38.739Z,576.00
2023-05-21T03:37:38.787Z,576.00
2023-05-21T03:38:38.819Z,580.00
2023-05-21T03:39:38.863Z,579.00
2023-05-21T03:40:38.863Z,579.00
2023-05-21T03:41:38.903Z,580.00
2023-05-21T03:42:38.936Z,581.00
2023-05-21T03:43:38.950Z,581.00
2023-05-21T03:44:38.997Z,582.00
2023-05-21T03:45:40.877Z,585.00
2023-05-21T03:46:39.131Z,584.00
2023-05-21T03:47:39.106Z,584.00
2023-05-21T03:48:38.997Z,582.00
2023-05-21T03:49:39.004Z,584.00
2023-05-21T03:50:39.004Z,585.00
2023-05-21T03:51:38.996Z,584.00
2023-05-21T03:52:38.994Z,585.00
2023-05-21T03:53:38.989Z,581.00
2023-05-21T03:54:38.937Z,578.00
2023-05-21T03:55:38.975Z,576.00
2023-05-21T03:56:39.020Z,576.00
2023-05-21T03:57:38.941Z,578.00
2023-05-21T03:58:38.979Z,577.00
2023-05-21T03:59:38.914Z,577.00
2023-05-21T04:00:38.977Z,579.00
2023-05-21T04:01:38.943Z,580.00
2023-05-21T04:02:38.946Z,580.00
2023-05-21T04:03:40.898Z,580.00
2023-05-21T04:04:38.901Z,579.00
2023-05-21T04:05:38.916Z,577.00
2023-05-21T04:06:38.857Z,576.00
2023-05-21T04:07:38.870Z,577.00
2023-05-21T04:08:38.921Z,576.00
2023-05-21T04:09:38.878Z,577.00
2023-05-21T04:10:38.922Z,579.00
2023-05-21T04:11:38.937Z,579.00
2023-05-21T04:12:38.996Z,579.00
2023-05-21T04:13:38.998Z,578.00
2023-05-21T04:14:39.017Z,580.00
2023-05-21T04:15:39.280Z,578.00
2023-05-21T04:16:39.129Z,576.00
2023-05-21T04:17:39.121Z,576.00
2023-05-21T04:18:39.163Z,577.00
2023-05-21T04:19:39.200Z,577.00
2023-05-21T04:20:39.206Z,577.00
2023-05-21T04:21:39.268Z,576.00
2023-05-21T04:22:39.265Z,577.00
2023-05-21T04:23:40.055Z,577.00
2023-05-21T04:24:39.394Z,575.00
2023-05-21T04:25:39.360Z,576.00
2023-05-21T04:26:39.385Z,579.00
2023-05-21T04:27:39.422Z,577.00
2023-05-21T04:28:39.449Z,575.00
2023-05-21T04:29:39.483Z,575.00
2023-05-21T04:30:39.535Z,576.00
2023-05-21T04:31:39.596Z,579.00
2023-05-21T04:32:39.618Z,580.00
2023-05-21T04:33:39.577Z,581.00
2023-05-21T04:34:39.634Z,580.00
2023-05-21T04:35:39.663Z,581.00
2023-05-21T04:36:39.710Z,579.00
2023-05-21T04:37:39.717Z,580.00
2023-05-21T04:38:39.755Z,579.00
2023-05-21T04:39:39.787Z,580.00
2023-05-21T04:40:39.834Z,581.00
2023-05-21T04:41:39.853Z,583.00
2023-05-21T04:42:39.903Z,583.00
2023-05-21T04:43:39.913Z,582.00
2023-05-21T04:44:39.908Z,582.00
2023-05-21T04:45:41.836Z,583.00
2023-05-21T04:46:41.804Z,583.00
2023-05-21T04:47:40.073Z,584.00
2023-05-21T04:48:40.045Z,583.00
2023-05-21T04:49:40.108Z,581.00
2023-05-21T04:50:40.150Z,583.00
2023-05-21T04:51:40.223Z,583.00
2023-05-21T04:52:40.300Z,584.00
2023-05-21T04:53:40.357Z,585.00
2023-05-21T04:54:40.374Z,585.00
2023-05-21T04:55:40.451Z,583.00
2023-05-21T04:56:40.543Z,581.00
2023-05-21T04:57:40.595Z,580.00
2023-05-21T04:58:40.635Z,580.00
2023-05-21T04:59:40.710Z,580.00
2023-05-21T05:00:40.842Z,580.00
2023-05-21T05:01:40.833Z,578.00
2023-05-21T05:02:40.918Z,578.00
2023-05-21T05:03:40.992Z,580.00
2023-05-21T05:04:40.976Z,580.00
2023-05-21T05:05:41.080Z,581.00
2023-05-21T05:06:41.114Z,579.00
2023-05-21T05:07:41.204Z,578.00
2023-05-21T05:08:41.251Z,578.00
2023-05-21T05:09:41.332Z,580.00
2023-05-21T05:10:41.379Z,580.00
2023-05-21T05:11:41.429Z,581.00
2023-05-21T05:12:41.510Z,583.00
2023-05-21T05:13:41.606Z,584.00
2023-05-21T05:14:41.635Z,583.00
2023-05-21T05:15:41.709Z,584.00
2023-05-21T05:16:41.795Z,586.00
2023-05-21T05:17:41.817Z,587.00
2023-05-21T05:18:41.956Z,588.00
2023-05-21T05:19:41.929Z,589.00
2023-05-21T05:20:41.974Z,589.00
2023-05-21T05:21:42.024Z,587.00
2023-05-21T05:22:42.094Z,588.00
2023-05-21T05:23:42.140Z,589.00
2023-05-21T05:24:42.193Z,586.00
2023-05-21T05:25:42.288Z,584.00
2023-05-21T05:26:42.333Z,583.00
2023-05-21T05:27:42.373Z,583.00
2023-05-21T05:28:42.477Z,583.00
2023-05-21T05:29:42.588Z,583.00
2023-05-21T05:30:42.618Z,580.00
2023-05-21T05:31:42.714Z,580.00
2023-05-21T05:32:42.804Z,579.00
2023-05-21T05:33:42.779Z,579.00
2023-05-21T05:34:42.846Z,578.00
2023-05-21T05:35:42.889Z,579.00
2023-05-21T05:36:42.968Z,580.00
2023-05-21T05:37:43.009Z,580.00
2023-05-21T05:38:43.062Z,581.00
2023-05-21T05:39:43.143Z,582.00
2023-05-21T05:40:43.181Z,582.00
2023-05-21T05:41:43.244Z,581.00
2023-05-21T05:42:43.316Z,581.00
2023-05-21T05:43:43.368Z,580.00
2023-05-21T05:44:43.362Z,579.00
2023-05-21T05:45:43.415Z,580.00
2023-05-21T05:46:43.522Z,582.00
2023-05-21T05:47:43.496Z,582.00
2023-05-21T05:48:43.513Z,583.00
2023-05-21T05:49:43.529Z,584.00
2023-05-21T05:50:43.521Z,586.00
2023-05-21T05:51:43.575Z,584.00
2023-05-21T05:52:43.598Z,584.00
2023-05-21T05:53:43.590Z,583.00
2023-05-21T05:54:43.635Z,581.00
2023-05-21T05:55:43.654Z,584.00
2023-05-21T05:56:43.676Z,582.00
2023-05-21T05:57:45.121Z,582.00
2023-05-21T05:58:43.744Z,581.00
2023-05-21T05:59:43.752Z,580.00
2023-05-21T06:00:43.772Z,580.00
2023-05-21T06:01:43.777Z,577.00
2023-05-21T06:02:43.863Z,578.00
2023-05-21T06:03:43.917Z,577.00
2023-05-21T06:04:43.843Z,576.00
2023-05-21T06:05:43.957Z,577.00
2023-05-21T06:06:43.927Z,578.00
2023-05-21T06:07:43.937Z,577.00
2023-05-21T06:08:43.968Z,577.00
2023-05-21T06:09:44.028Z,577.00
2023-05-21T06:10:44.019Z,578.00
2023-05-21T06:11:44.040Z,579.00
2023-05-21T06:12:44.086Z,579.00
2023-05-21T06:13:44.087Z,579.00
2023-05-21T06:14:45.247Z,578.00
2023-05-21T06:15:44.143Z,579.00
2023-05-21T06:16:44.154Z,581.00
2023-05-21T06:17:44.202Z,582.00
2023-05-21T06:18:44.216Z,583.00
2023-05-21T06:19:44.210Z,584.00
2023-05-21T06:20:44.258Z,580.00
2023-05-21T06:21:44.232Z,580.00
2023-05-21T06:22:44.261Z,578.00
2023-05-21T06:23:44.283Z,577.00
2023-05-21T06:24:44.308Z,575.00
2023-05-21T06:25:44.379Z,574.00
2023-05-21T06:26:44.357Z,571.00
2023-05-21T06:27:44.412Z,572.00
2023-05-21T06:28:44.421Z,570.00
2023-05-21T06:29:44.423Z,569.00
2023-05-21T06:30:44.461Z,571.00
2023-05-21T06:31:44.468Z,573.00
2023-05-21T06:32:44.615Z,572.00
2023-05-21T06:33:44.641Z,574.00
2023-05-21T06:34:44.530Z,575.00
2023-05-21T06:35:44.561Z,574.00
2023-05-21T06:36:44.615Z,575.00
2023-05-21T06:37:44.553Z,574.00
2023-05-21T06:38:44.626Z,572.00
2023-05-21T06:39:44.642Z,576.00
2023-05-21T06:40:44.664Z,578.00
2023-05-21T06:41:44.667Z,581.00
2023-05-21T06:42:44.678Z,581.00
2023-05-21T06:43:44.685Z,582.00
2023-05-21T06:44:44.711Z,583.00
2023-05-21T06:45:44.736Z,583.00
2023-05-21T06:46:44.747Z,582.00
2023-05-21T06:47:44.821Z,582.00
2023-05-21T06:48:44.783Z,581.00
2023-05-21T06:49:44.797Z,584.00
2023-05-21T06:50:44.849Z,586.00
2023-05-21T06:51:44.863Z,588.00
2023-05-21T06:52:44.870Z,587.00
2023-05-21T06:53:44.888Z,583.00
2023-05-21T06:54:44.896Z,582.00
2023-05-21T06:55:44.947Z,581.00
2023-05-21T06:56:44.998Z,584.00
2023-05-21T06:57:44.973Z,583.00
2023-05-21T06:58:44.968Z,583.00
2023-05-21T06:59:45.027Z,583.00
2023-05-21T07:00:45.034Z,584.00
2023-05-21T07:01:45.131Z,583.00
2023-05-21T07:02:45.133Z,582.00
2023-05-21T07:03:45.090Z,581.00
2023-05-21T07:04:45.052Z,583.00
2023-05-21T07:05:45.108Z,582.00
2023-05-21T07:06:45.100Z,580.00
2023-05-21T07:07:45.099Z,580.00
2023-05-21T07:08:45.155Z,581.00
2023-05-21T07:09:45.142Z,580.00
2023-05-21T07:10:45.175Z,581.00
2023-05-21T07:11:45.217Z,581.00
2023-05-21T07:12:45.182Z,580.00
2023-05-21T07:13:45.195Z,581.00
2023-05-21T07:14:45.208Z,583.00
2023-05-21T07:15:45.253Z,584.00
2023-05-21T07:16:45.254Z,585.00
2023-05-21T07:17:45.286Z,587.00
2023-05-21T07:18:45.286Z,585.00
2023-05-21T07:19:45.268Z,585.00
2023-05-21T07:20:45.297Z,585.00
2023-05-21T07:21:45.285Z,585.00
2023-05-21T07:22:45.280Z,586.00
2023-05-21T07:23:45.304Z,587.00
2023-05-21T07:24:45.310Z,586.00
2023-05-21T07:25:45.345Z,585.00
2023-05-21T07:26:45.336Z,585.00
2023-05-21T07:27:45.374Z,586.00
2023-05-21T07:28:45.382Z,585.00
2023-05-21T07:29:45.384Z,585.00
2023-05-21T07:30:45.433Z,587.00
2023-05-21T07:31:45.405Z,588.00
2023-05-21T07:32:45.438Z,585.00
2023-05-21T07:33:45.416Z,587.00
2023-05-21T07:34:45.425Z,587.00
2023-05-21T07:35:45.485Z,588.00
2023-05-21T07:36:45.461Z,591.00
2023-05-21T07:37:45.491Z,591.00
2023-05-21T07:38:45.492Z,591.00
2023-05-21T07:39:45.529Z,588.00
2023-05-21T07:40:45.534Z,589.00
2023-05-21T07:41:45.527Z,589.00
2023-05-21T07:42:45.579Z,588.00
2023-05-21T07:43:45.517Z,590.00
2023-05-21T07:44:45.552Z,590.00
2023-05-21T07:45:45.600Z,591.00
2023-05-21T07:46:45.668Z,590.00
2023-05-21T07:47:45.612Z,590.00
2023-05-21T07:48:45.589Z,589.00
2023-05-21T07:49:45.625Z,590.00
2023-05-21T07:50:45.609Z,589.00
2023-05-21T07:51:45.608Z,588.00
2023-05-21T07:52:45.627Z,590.00
2023-05-21T07:53:45.628Z,594.00
2023-05-21T07:54:45.660Z,596.00
2023-05-21T07:55:45.661Z,596.00
2023-05-21T07:56:45.677Z,596.00
2023-05-21T07:57:45.632Z,595.00
2023-05-21T07:58:45.696Z,598.00
2023-05-21T07:59:45.643Z,598.00
2023-05-21T08:00:45.658Z,595.00
2023-05-21T08:01:45.676Z,593.00
2023-05-21T08:02:45.750Z,595.00
2023-05-21T08:03:45.802Z,592.00
2023-05-21T08:04:45.700Z,592.00
2023-05-21T08:05:45.700Z,592.00
2023-05-21T08:06:45.674Z,593.00
2023-05-21T08:07:45.702Z,591.00
2023-05-21T08:08:45.680Z,591.00
2023-05-21T08:09:45.651Z,589.00
2023-05-21T08:10:45.692Z,588.00
2023-05-21T08:11:45.688Z,588.00
2023-05-21T08:12:45.667Z,590.00
2023-05-21T08:13:45.706Z,586.00
2023-05-21T08:14:45.719Z,586.00
2023-05-21T08:15:45.714Z,584.00
2023-05-21T08:16:45.799Z,585.00
2023-05-21T08:17:45.751Z,583.00
2023-05-21T08:18:45.744Z,583.00
2023-05-21T08:19:45.730Z,585.00
2023-05-21T08:20:45.720Z,584.00
2023-05-21T08:21:45.737Z,584.00
2023-05-21T08:22:45.761Z,586.00
2023-05-21T08:23:45.740Z,588.00
2023-05-21T08:24:45.715Z,587.00
2023-05-21T08:25:45.761Z,587.00
2023-05-21T08:26:45.722Z,587.00
2023-05-21T08:27:45.742Z,587.00
2023-05-21T08:28:45.781Z,587.00
2023-05-21T08:29:45.732Z,586.00
2023-05-21T08:30:45.758Z,586.00
2023-05-21T08:31:45.793Z,587.00
2023-05-21T08:32:45.783Z,586.00
2023-05-21T08:33:45.747Z,588.00
2023-05-21T08:34:45.719Z,590.00
2023-05-21T08:35:45.768Z,591.00
2023-05-21T08:36:45.741Z,589.00
2023-05-21T08:37:45.739Z,589.00
2023-05-21T08:38:45.754Z,586.00
2023-05-21T08:39:45.726Z,588.00
2023-05-21T08:40:45.734Z,588.00
2023-05-21T08:41:45.738Z,588.00
2023-05-21T08:42:45.749Z,587.00
2023-05-21T08:43:46.830Z,587.00
2023-05-21T08:44:45.721Z,587.00
2023-05-21T08:45:45.792Z,587.00
2023-05-21T08:46:45.744Z,587.00
2023-05-21T08:47:45.755Z,586.00
2023-05-21T08:48:45.801Z,586.00
2023-05-21T08:49:45.753Z,586.00
2023-05-21T08:50:45.751Z,588.00
2023-05-21T08:51:45.739Z,586.00
2023-05-21T08:52:45.736Z,586.00
2023-05-21T08:53:45.783Z,587.00
2023-05-21T08:54:45.715Z,586.00
2023-05-21T08:55:45.728Z,587.00
2023-05-21T08:56:45.751Z,586.00
2023-05-21T08:57:45.752Z,585.00
2023-05-21T08:58:45.714Z,584.00
2023-05-21T08:59:45.714Z,586.00
2023-05-21T09:00:45.747Z,587.00
2023-05-21T09:01:45.903Z,589.00
2023-05-21T09:02:45.809Z,587.00
2023-05-21T09:03:45.817Z,586.00
2023-05-21T09:04:45.780Z,588.00
2023-05-21T09:05:45.759Z,587.00
2023-05-21T09:06:45.750Z,588.00
2023-05-21T09:07:45.715Z,591.00
2023-05-21T09:08:45.764Z,591.00
2023-05-21T09:09:45.719Z,592.00
2023-05-21T09:10:45.735Z,589.00
2023-05-21T09:11:45.730Z,591.00
2023-05-21T09:12:45.755Z,590.00
2023-05-21T09:13:45.732Z,590.00
2023-05-21T09:14:45.746Z,589.00
2023-05-21T09:15:45.727Z,590.00
2023-05-21T09:16:45.779Z,589.00
2023-05-21T09:17:45.754Z,590.00
2023-05-21T09:18:45.770Z,588.00
2023-05-21T09:19:45.707Z,589.00
2023-05-21T09:20:45.712Z,589.00
2023-05-21T09:21:45.736Z,592.00
2023-05-21T09:22:45.726Z,592.00
2023-05-21T09:23:45.738Z,590.00
2023-05-21T09:24:45.767Z,588.00
2023-05-21T09:25:45.743Z,587.00
2023-05-21T09:26:45.683Z,588.00
2023-05-21T09:27:45.709Z,590.00
2023-05-21T09:28:45.703Z,592.00
2023-05-21T09:29:45.675Z,590.00
2023-05-21T09:30:45.684Z,588.00
2023-05-21T09:31:45.836Z,588.00
2023-05-21T09:32:45.738Z,588.00
2023-05-21T09:33:45.702Z,589.00
2023-05-21T09:34:45.710Z,590.00
2023-05-21T09:35:45.697Z,589.00
2023-05-21T09:36:45.705Z,588.00
2023-05-21T09:37:45.660Z,588.00
2023-05-21T09:38:45.659Z,589.00
2023-05-21T09:39:45.661Z,589.00
2023-05-21T09:40:45.681Z,589.00
2023-05-21T09:41:45.689Z,589.00
2023-05-21T09:42:45.659Z,589.00
2023-05-21T09:43:45.657Z,584.00
2023-05-21T09:44:45.652Z,582.00
2023-05-21T09:45:45.668Z,584.00
2023-05-21T09:46:45.706Z,585.00
2023-05-21T09:47:45.688Z,587.00
2023-05-21T09:48:45.661Z,586.00
2023-05-21T09:49:46.635Z,588.00
2023-05-21T09:50:45.651Z,589.00
2023-05-21T09:51:45.644Z,587.00
2023-05-21T09:52:45.687Z,588.00
2023-05-21T09:53:45.671Z,587.00
2023-05-21T09:54:45.684Z,586.00
2023-05-21T09:55:45.666Z,587.00
2023-05-21T09:56:45.662Z,590.00
2023-05-21T09:57:45.727Z,586.00
2023-05-21T09:58:45.668Z,586.00
2023-05-21T09:59:45.683Z,586.00
2023-05-21T10:00:45.688Z,586.00
2023-05-21T10:01:45.733Z,586.00
2023-05-21T10:02:45.679Z,584.00
2023-05-21T10:03:45.745Z,584.00
2023-05-21T10:04:45.737Z,587.00
2023-05-21T10:05:45.710Z,588.00
2023-05-21T10:06:45.709Z,589.00
2023-05-21T10:07:45.701Z,589.00
2023-05-21T10:08:45.691Z,590.00
2023-05-21T10:09:45.686Z,589.00
2023-05-21T10:10:45.716Z,590.00
2023-05-21T10:11:45.748Z,589.00
2023-05-21T10:12:45.755Z,589.00
2023-05-21T10:13:45.729Z,590.00
2023-05-21T10:14:45.728Z,591.00
2023-05-21T10:15:45.795Z,594.00
2023-05-21T10:16:45.762Z,592.00
2023-05-21T10:17:45.727Z,593.00
2023-05-21T10:18:46.678Z,594.00
2023-05-21T10:19:45.776Z,596.00
2023-05-21T10:20:45.755Z,597.00
2023-05-21T10:21:45.784Z,597.00
2023-05-21T10:22:45.768Z,596.00
2023-05-21T10:23:45.763Z,597.00
2023-05-21T10:24:45.752Z,597.00
2023-05-21T10:25:45.783Z,596.00
2023-05-21T10:26:45.777Z,595.00
2023-05-21T10:27:45.820Z,596.00
2023-05-21T10:28:45.826Z,594.00
2023-05-21T10:29:45.810Z,594.00
2023-05-21T10:30:45.845Z,594.00
2023-05-21T10:31:45.853Z,592.00
2023-05-21T10:32:46.055Z,589.00
2023-05-21T10:33:45.898Z,590.00
2023-05-21T10:34:45.864Z,591.00
2023-05-21T10:35:45.891Z,595.00
2023-05-21T10:36:45.906Z,596.00
2023-05-21T10:37:45.880Z,595.00
2023-05-21T10:38:45.851Z,595.00
2023-05-21T10:39:45.899Z,593.00
2023-05-21T10:40:45.911Z,593.00
2023-05-21T10:41:45.913Z,594.00
2023-05-21T10:42:45.966Z,594.00
2023-05-21T10:43:45.961Z,597.00
2023-05-21T10:44:45.965Z,597.00
2023-05-21T10:45:46.057Z,593.00
2023-05-21T10:46:46.065Z,596.00
2023-05-21T10:47:46.147Z,597.00
2023-05-21T10:48:46.132Z,597.00
2023-05-21T10:49:46.516Z,597.00
2023-05-21T10:50:46.167Z,594.00
2023-05-21T10:51:46.197Z,594.00
2023-05-21T10:52:46.219Z,596.00
2023-05-21T10:53:46.260Z,598.00
2023-05-21T10:54:46.294Z,595.00
2023-05-21T10:55:46.311Z,594.00
2023-05-21T10:56:46.284Z,593.00
2023-05-21T10:57:46.309Z,591.00
2023-05-21T10:58:46.343Z,590.00
2023-05-21T10:59:46.387Z,592.00
2023-05-21T11:00:46.417Z,593.00
2023-05-21T11:01:46.464Z,591.00
2023-05-21T11:02:46.612Z,592.00
2023-05-21T11:03:46.555Z,592.00
2023-05-21T11:04:46.504Z,594.00
2023-05-21T11:05:46.527Z,595.00
2023-05-21T11:06:46.597Z,595.00
2023-05-21T11:07:46.617Z,594.00
2023-05-21T11:08:46.602Z,592.00
2023-05-21T11:09:46.633Z,593.00
2023-05-21T11:10:46.665Z,595.00
2023-05-21T11:11:46.680Z,597.00
2023-05-21T11:12:46.660Z,596.00
2023-05-21T11:13:46.688Z,597.00
2023-05-21T11:14:46.719Z,595.00
2023-05-21T11:15:46.756Z,593.00
2023-05-21T11:16:46.907Z,593.00
2023-05-21T11:17:46.913Z,593.00
2023-05-21T11:18:46.930Z,593.00
2023-05-21T11:19:46.957Z,593.00
2023-05-21T11:20:46.967Z,593.00
2023-05-21T11:21:47.000Z,594.00
2023-05-21T11:22:47.041Z,594.00
2023-05-21T11:23:47.061Z,593.00
2023-05-21T11:24:48.262Z,594.00
2023-05-21T11:25:47.107Z,592.00
2023-05-21T11:26:47.111Z,593.00
2023-05-21T11:27:47.105Z,593.00
2023-05-21T11:28:47.086Z,593.00
2023-05-21T11:29:47.106Z,592.00
2023-05-21T11:30:47.062Z,591.00
2023-05-21T11:31:47.120Z,592.00
2023-05-21T11:32:47.100Z,593.00
2023-05-21T11:33:47.078Z,594.00
2023-05-21T11:34:47.095Z,596.00
2023-05-21T11:35:47.056Z,595.00
2023-05-21T11:36:47.019Z,596.00
2023-05-21T11:37:47.033Z,595.00
2023-05-21T11:38:47.044Z,594.00
2023-05-21T11:39:47.022Z,592.00
2023-05-21T11:40:47.017Z,593.00
2023-05-21T11:41:47.028Z,593.00
2023-05-21T11:42:46.983Z,595.00
2023-05-21T11:43:46.963Z,593.00
2023-05-21T11:44:46.986Z,591.00
2023-05-21T11:45:46.981Z,593.00
2023-05-21T11:46:47.011Z,596.00
2023-05-21T11:47:47.032Z,595.00
2023-05-21T11:48:46.972Z,595.00
2023-05-21T11:49:46.940Z,597.00
2023-05-21T11:50:46.955Z,596.00
2023-05-21T11:51:46.994Z,596.00
2023-05-21T11:52:46.926Z,593.00
2023-05-21T11:53:46.906Z,590.00
2023-05-21T11:54:46.921Z,590.00
2023-05-21T11:55:46.909Z,589.00
2023-05-21T11:56:46.914Z,590.00
2023-05-21T11:57:46.884Z,589.00
2023-05-21T11:58:46.906Z,592.00
2023-05-21T11:59:46.864Z,590.00
2023-05-21T12:00:46.907Z,589.00
2023-05-21T12:01:46.893Z,589.00
2023-05-21T12:02:46.926Z,587.00
2023-05-21T12:03:46.966Z,586.00
2023-05-21T12:04:46.836Z,586.00
2023-05-21T12:05:46.901Z,585.00
2023-05-21T12:06:46.841Z,585.00
2023-05-21T12:07:46.903Z,583.00
2023-05-21T12:08:46.960Z,586.00
2023-05-21T12:09:47.024Z,586.00
2023-05-21T12:10:47.089Z,585.00
2023-05-21T12:11:47.122Z,585.00
2023-05-21T12:12:55.537Z,586.00
2023-05-21T12:13:48.289Z,586.00
2023-05-21T12:14:47.177Z,585.00
2023-05-21T12:15:47.214Z,587.00
2023-05-21T12:16:47.169Z,589.00
2023-05-21T12:17:47.222Z,591.00
2023-05-21T12:18:47.165Z,589.00
2023-05-21T12:19:47.136Z,587.00
2023-05-21T12:20:47.154Z,588.00
2023-05-21T12:21:47.180Z,587.00
2023-05-21T12:22:47.262Z,589.00
2023-05-21T12:23:47.314Z,589.00
2023-05-21T12:24:47.371Z,590.00
2023-05-21T12:25:47.425Z,591.00
2023-05-21T12:26:47.468Z,591.00
2023-05-21T12:27:47.510Z,589.00
2023-05-21T12:28:47.678Z,585.00